sensor_id;sensor_type;location;lat;lon;timestamp;P1;durP1;ratioP1;P2;durP2;ratioP2
10529;SDS011;5313;48.834;9.228;2023-02-03T00:00:36;1.13;;;0.97;;
10529;SDS011;5313;48.834;9.228;2023-02-03T00:03:01;0.90;;;0.80;;
10529;SDS011;5313;48.834;9.228;2023-02-03T00:05:27;1.63;;;0.80;;
10529;SDS011;5313;48.834;9.228;2023-02-03T00:07:53;3.50;;;1.00;;
10529;SDS011;5313;48.834;9.228;2023-02-03T00:10:19;0.90;;;0.73;;
10529;SDS011;5313;48.834;9.228;2023-02-03T00:12:48;1.53;;;0.73;;
10529;SDS011;5313;48.834;9.228;2023-02-03T00:15:15;1.37;;;0.90;;
10529;SDS011;5313;48.834;9.228;2023-02-03T00:17:41;2.53;;;0.90;;
10529;SDS011;5313;48.834;9.228;2023-02-03T00:20:06;0.90;;;0.77;;
10529;SDS011;5313;48.834;9.228;2023-02-03T00:22:33;1.40;;;0.70;;
10529;SDS011;5313;48.834;9.228;2023-02-03T00:24:59;2.20;;;0.53;;
10529;SDS011;5313;48.834;9.228;2023-02-03T00:27:25;1.17;;;0.60;;
10529;SDS011;5313;48.834;9.228;2023-02-03T00:29:50;2.40;;;0.80;;
10529;SDS011;5313;48.834;9.228;2023-02-03T00:32:16;1.20;;;0.70;;
10529;SDS011;5313;48.834;9.228;2023-02-03T00:34:41;1.07;;;0.67;;
10529;SDS011;5313;48.834;9.228;2023-02-03T00:37:07;2.00;;;0.73;;
10529;SDS011;5313;48.834;9.228;2023-02-03T00:39:34;2.80;;;0.80;;
10529;SDS011;5313;48.834;9.228;2023-02-03T00:42:02;1.63;;;0.90;;
10529;SDS011;5313;48.834;9.228;2023-02-03T00:44:28;2.17;;;1.00;;
10529;SDS011;5313;48.834;9.228;2023-02-03T00:46:54;0.97;;;0.73;;
10529;SDS011;5313;48.834;9.228;2023-02-03T00:49:19;1.37;;;0.90;;
10529;SDS011;5313;48.834;9.228;2023-02-03T00:51:45;0.97;;;0.70;;
10529;SDS011;5313;48.834;9.228;2023-02-03T00:54:10;0.73;;;0.53;;
10529;SDS011;5313;48.834;9.228;2023-02-03T00:56:37;0.60;;;0.50;;
10529;SDS011;5313;48.834;9.228;2023-02-03T00:59:03;0.77;;;0.60;;
10529;SDS011;5313;48.834;9.228;2023-02-03T01:01:29;0.63;;;0.63;;
10529;SDS011;5313;48.834;9.228;2023-02-03T01:03:54;2.57;;;0.80;;
10529;SDS011;5313;48.834;9.228;2023-02-03T01:06:20;2.10;;;0.70;;
10529;SDS011;5313;48.834;9.228;2023-02-03T01:08:47;2.07;;;0.67;;
10529;SDS011;5313;48.834;9.228;2023-02-03T01:11:21;2.67;;;0.80;;
10529;SDS011;5313;48.834;9.228;2023-02-03T01:13:49;1.13;;;0.80;;
10529;SDS011;5313;48.834;9.228;2023-02-03T01:16:16;1.50;;;0.80;;
10529;SDS011;5313;48.834;9.228;2023-02-03T01:18:43;3.27;;;0.90;;
10529;SDS011;5313;48.834;9.228;2023-02-03T01:21:11;0.80;;;0.63;;
10529;SDS011;5313;48.834;9.228;2023-02-03T01:23:41;1.70;;;0.70;;
10529;SDS011;5313;48.834;9.228;2023-02-03T01:26:08;3.77;;;0.70;;
10529;SDS011;5313;48.834;9.228;2023-02-03T01:28:36;1.03;;;0.60;;
10529;SDS011;5313;48.834;9.228;2023-02-03T01:31:09;1.73;;;1.20;;
10529;SDS011;5313;48.834;9.228;2023-02-03T01:33:41;0.50;;;0.50;;
10529;SDS011;5313;48.834;9.228;2023-02-03T01:36:10;2.00;;;0.93;;
10529;SDS011;5313;48.834;9.228;2023-02-03T01:38:36;2.17;;;0.80;;
10529;SDS011;5313;48.834;9.228;2023-02-03T01:41:02;2.47;;;0.80;;
10529;SDS011;5313;48.834;9.228;2023-02-03T01:43:34;2.03;;;0.90;;
10529;SDS011;5313;48.834;9.228;2023-02-03T01:46:03;1.00;;;0.60;;
10529;SDS011;5313;48.834;9.228;2023-02-03T01:48:37;1.50;;;0.67;;
10529;SDS011;5313;48.834;9.228;2023-02-03T01:51:03;1.07;;;0.87;;
10529;SDS011;5313;48.834;9.228;2023-02-03T01:53:29;0.70;;;0.60;;
10529;SDS011;5313;48.834;9.228;2023-02-03T01:55:57;2.23;;;0.80;;
10529;SDS011;5313;48.834;9.228;2023-02-03T01:58:24;1.17;;;0.80;;
10529;SDS011;5313;48.834;9.228;2023-02-03T02:00:53;2.87;;;0.80;;
10529;SDS011;5313;48.834;9.228;2023-02-03T02:03:22;1.67;;;0.77;;
10529;SDS011;5313;48.834;9.228;2023-02-03T02:06:05;1.20;;;0.80;;
10529;SDS011;5313;48.834;9.228;2023-02-03T02:08:32;3.10;;;1.37;;
10529;SDS011;5313;48.834;9.228;2023-02-03T02:10:59;0.93;;;0.70;;
10529;SDS011;5313;48.834;9.228;2023-02-03T02:13:25;2.00;;;1.10;;
10529;SDS011;5313;48.834;9.228;2023-02-03T02:16:14;1.17;;;0.87;;
10529;SDS011;5313;48.834;9.228;2023-02-03T02:18:46;0.87;;;0.80;;
10529;SDS011;5313;48.834;9.228;2023-02-03T02:38:02;1.57;;;1.00;;
10529;SDS011;5313;48.834;9.228;2023-02-03T02:40:42;2.00;;;0.97;;
10529;SDS011;5313;48.834;9.228;2023-02-03T02:43:18;1.00;;;0.90;;
10529;SDS011;5313;48.834;9.228;2023-02-03T02:45:55;1.00;;;0.80;;
10529;SDS011;5313;48.834;9.228;2023-02-03T02:48:26;2.43;;;1.07;;
10529;SDS011;5313;48.834;9.228;2023-02-03T02:51:11;1.80;;;1.10;;
10529;SDS011;5313;48.834;9.228;2023-02-03T02:53:40;3.20;;;1.13;;
10529;SDS011;5313;48.834;9.228;2023-02-03T02:56:10;1.43;;;0.93;;
10529;SDS011;5313;48.834;9.228;2023-02-03T02:58:38;1.33;;;1.10;;
10529;SDS011;5313;48.834;9.228;2023-02-03T03:01:07;1.87;;;1.10;;
10529;SDS011;5313;48.834;9.228;2023-02-03T03:03:33;2.37;;;1.00;;
10529;SDS011;5313;48.834;9.228;2023-02-03T03:06:01;4.50;;;1.00;;
10529;SDS011;5313;48.834;9.228;2023-02-03T03:11:25;1.47;;;0.80;;
10529;SDS011;5313;48.834;9.228;2023-02-03T03:13:56;1.83;;;1.00;;
10529;SDS011;5313;48.834;9.228;2023-02-03T03:16:22;1.10;;;0.80;;
10529;SDS011;5313;48.834;9.228;2023-02-03T03:18:51;2.47;;;1.13;;
10529;SDS011;5313;48.834;9.228;2023-02-03T03:21:27;1.57;;;1.00;;
10529;SDS011;5313;48.834;9.228;2023-02-03T03:24:00;1.00;;;0.87;;
10529;SDS011;5313;48.834;9.228;2023-02-03T03:26:39;1.33;;;0.87;;
10529;SDS011;5313;48.834;9.228;2023-02-03T03:29:29;1.93;;;0.70;;
10529;SDS011;5313;48.834;9.228;2023-02-03T03:32:02;3.70;;;1.03;;
10529;SDS011;5313;48.834;9.228;2023-02-03T03:34:28;0.97;;;0.77;;
10529;SDS011;5313;48.834;9.228;2023-02-03T03:37:10;2.13;;;0.80;;
10529;SDS011;5313;48.834;9.228;2023-02-03T03:44:56;1.90;;;0.80;;
10529;SDS011;5313;48.834;9.228;2023-02-03T03:47:30;0.87;;;0.77;;
10529;SDS011;5313;48.834;9.228;2023-02-03T03:50:03;1.47;;;0.80;;
10529;SDS011;5313;48.834;9.228;2023-02-03T03:52:33;1.80;;;1.03;;
10529;SDS011;5313;48.834;9.228;2023-02-03T03:55:02;1.63;;;0.90;;
10529;SDS011;5313;48.834;9.228;2023-02-03T03:57:43;1.20;;;0.70;;
10529;SDS011;5313;48.834;9.228;2023-02-03T04:00:16;1.00;;;0.70;;
10529;SDS011;5313;48.834;9.228;2023-02-03T04:02:45;0.93;;;0.73;;
10529;SDS011;5313;48.834;9.228;2023-02-03T04:05:16;1.20;;;0.70;;
10529;SDS011;5313;48.834;9.228;2023-02-03T04:07:43;1.23;;;0.47;;
10529;SDS011;5313;48.834;9.228;2023-02-03T04:10:17;1.33;;;0.70;;
10529;SDS011;5313;48.834;9.228;2023-02-03T04:12:45;1.60;;;0.73;;
10529;SDS011;5313;48.834;9.228;2023-02-03T04:15:10;2.50;;;0.70;;
10529;SDS011;5313;48.834;9.228;2023-02-03T04:17:36;2.10;;;0.63;;
10529;SDS011;5313;48.834;9.228;2023-02-03T04:20:02;0.97;;;0.70;;
10529;SDS011;5313;48.834;9.228;2023-02-03T04:22:28;0.70;;;0.50;;
10529;SDS011;5313;48.834;9.228;2023-02-03T04:24:54;1.03;;;0.53;;
10529;SDS011;5313;48.834;9.228;2023-02-03T04:27:22;0.87;;;0.60;;
10529;SDS011;5313;48.834;9.228;2023-02-03T04:29:49;3.40;;;0.60;;
10529;SDS011;5313;48.834;9.228;2023-02-03T04:32:15;1.43;;;0.60;;
10529;SDS011;5313;48.834;9.228;2023-02-03T04:34:40;1.70;;;0.70;;
10529;SDS011;5313;48.834;9.228;2023-02-03T04:37:06;0.83;;;0.60;;
10529;SDS011;5313;48.834;9.228;2023-02-03T04:39:31;0.97;;;0.87;;
10529;SDS011;5313;48.834;9.228;2023-02-03T04:41:57;1.40;;;0.80;;
10529;SDS011;5313;48.834;9.228;2023-02-03T04:44:22;1.00;;;0.43;;
10529;SDS011;5313;48.834;9.228;2023-02-03T04:46:48;4.30;;;0.80;;
10529;SDS011;5313;48.834;9.228;2023-02-03T04:49:13;0.53;;;0.50;;
10529;SDS011;5313;48.834;9.228;2023-02-03T04:51:39;1.00;;;0.60;;
10529;SDS011;5313;48.834;9.228;2023-02-03T04:54:07;0.73;;;0.60;;
10529;SDS011;5313;48.834;9.228;2023-02-03T04:56:32;1.00;;;0.50;;
10529;SDS011;5313;48.834;9.228;2023-02-03T04:58:58;2.20;;;0.50;;
10529;SDS011;5313;48.834;9.228;2023-02-03T05:01:23;0.50;;;0.50;;
10529;SDS011;5313;48.834;9.228;2023-02-03T05:03:49;0.67;;;0.50;;
10529;SDS011;5313;48.834;9.228;2023-02-03T05:06:14;1.77;;;0.50;;
10529;SDS011;5313;48.834;9.228;2023-02-03T05:08:40;0.47;;;0.40;;
10529;SDS011;5313;48.834;9.228;2023-02-03T05:11:05;0.47;;;0.47;;
10529;SDS011;5313;48.834;9.228;2023-02-03T05:13:31;0.73;;;0.50;;
10529;SDS011;5313;48.834;9.228;2023-02-03T05:15:56;1.40;;;0.47;;
10529;SDS011;5313;48.834;9.228;2023-02-03T05:18:22;0.73;;;0.53;;
10529;SDS011;5313;48.834;9.228;2023-02-03T05:20:47;1.47;;;0.60;;
10529;SDS011;5313;48.834;9.228;2023-02-03T05:23:13;0.87;;;0.60;;
10529;SDS011;5313;48.834;9.228;2023-02-03T05:25:38;1.67;;;0.70;;
10529;SDS011;5313;48.834;9.228;2023-02-03T05:28:04;2.13;;;0.80;;
10529;SDS011;5313;48.834;9.228;2023-02-03T05:30:29;1.60;;;1.20;;
10529;SDS011;5313;48.834;9.228;2023-02-03T05:32:55;0.73;;;0.60;;
10529;SDS011;5313;48.834;9.228;2023-02-03T05:35:20;0.67;;;0.57;;
10529;SDS011;5313;48.834;9.228;2023-02-03T05:37:46;0.40;;;0.40;;
10529;SDS011;5313;48.834;9.228;2023-02-03T05:40:12;1.23;;;0.60;;
10529;SDS011;5313;48.834;9.228;2023-02-03T05:42:57;1.80;;;0.70;;
10529;SDS011;5313;48.834;9.228;2023-02-03T05:45:22;1.90;;;0.63;;
10529;SDS011;5313;48.834;9.228;2023-02-03T05:47:48;1.47;;;0.80;;
10529;SDS011;5313;48.834;9.228;2023-02-03T05:50:13;0.93;;;0.60;;
10529;SDS011;5313;48.834;9.228;2023-02-03T05:52:39;0.70;;;0.50;;
10529;SDS011;5313;48.834;9.228;2023-02-03T05:55:05;0.60;;;0.60;;
10529;SDS011;5313;48.834;9.228;2023-02-03T05:57:30;0.90;;;0.63;;
10529;SDS011;5313;48.834;9.228;2023-02-03T05:59:56;2.20;;;0.87;;
10529;SDS011;5313;48.834;9.228;2023-02-03T06:02:21;1.33;;;0.83;;
10529;SDS011;5313;48.834;9.228;2023-02-03T06:04:47;0.70;;;0.67;;
10529;SDS011;5313;48.834;9.228;2023-02-03T06:07:12;2.07;;;0.80;;
10529;SDS011;5313;48.834;9.228;2023-02-03T06:09:38;1.80;;;0.70;;
10529;SDS011;5313;48.834;9.228;2023-02-03T06:12:03;1.10;;;0.80;;
10529;SDS011;5313;48.834;9.228;2023-02-03T06:14:29;0.80;;;0.60;;
10529;SDS011;5313;48.834;9.228;2023-02-03T06:16:55;0.83;;;0.73;;
10529;SDS011;5313;48.834;9.228;2023-02-03T06:19:20;3.03;;;0.90;;
10529;SDS011;5313;48.834;9.228;2023-02-03T06:21:46;1.43;;;1.10;;
10529;SDS011;5313;48.834;9.228;2023-02-03T06:24:11;1.10;;;0.90;;
10529;SDS011;5313;48.834;9.228;2023-02-03T06:26:37;2.63;;;1.03;;
10529;SDS011;5313;48.834;9.228;2023-02-03T06:29:02;3.73;;;2.23;;
10529;SDS011;5313;48.834;9.228;2023-02-03T06:31:28;6.23;;;3.60;;
10529;SDS011;5313;48.834;9.228;2023-02-03T06:33:53;5.93;;;3.00;;
10529;SDS011;5313;48.834;9.228;2023-02-03T06:36:21;1.43;;;1.00;;
10529;SDS011;5313;48.834;9.228;2023-02-03T06:38:47;1.57;;;1.00;;
10529;SDS011;5313;48.834;9.228;2023-02-03T06:41:13;1.63;;;0.70;;
10529;SDS011;5313;48.834;9.228;2023-02-03T06:43:38;1.70;;;1.10;;
10529;SDS011;5313;48.834;9.228;2023-02-03T06:46:04;1.13;;;1.00;;
10529;SDS011;5313;48.834;9.228;2023-02-03T06:48:29;2.33;;;1.30;;
10529;SDS011;5313;48.834;9.228;2023-02-03T06:50:55;0.93;;;0.83;;
10529;SDS011;5313;48.834;9.228;2023-02-03T06:53:20;1.30;;;1.03;;
10529;SDS011;5313;48.834;9.228;2023-02-03T06:55:46;1.97;;;1.33;;
10529;SDS011;5313;48.834;9.228;2023-02-03T06:58:12;1.83;;;1.30;;
10529;SDS011;5313;48.834;9.228;2023-02-03T07:00:37;2.23;;;0.90;;
10529;SDS011;5313;48.834;9.228;2023-02-03T07:03:03;1.30;;;1.00;;
10529;SDS011;5313;48.834;9.228;2023-02-03T07:05:28;1.97;;;0.90;;
10529;SDS011;5313;48.834;9.228;2023-02-03T07:07:54;2.17;;;1.17;;
10529;SDS011;5313;48.834;9.228;2023-02-03T07:10:19;1.77;;;0.93;;
10529;SDS011;5313;48.834;9.228;2023-02-03T07:12:45;1.53;;;1.03;;
10529;SDS011;5313;48.834;9.228;2023-02-03T07:15:11;5.30;;;1.10;;
10529;SDS011;5313;48.834;9.228;2023-02-03T07:17:37;4.10;;;0.87;;
10529;SDS011;5313;48.834;9.228;2023-02-03T07:20:03;1.73;;;0.83;;
10529;SDS011;5313;48.834;9.228;2023-02-03T07:22:29;1.60;;;1.00;;
10529;SDS011;5313;48.834;9.228;2023-02-03T07:24:55;1.03;;;0.93;;
10529;SDS011;5313;48.834;9.228;2023-02-03T07:27:20;1.20;;;0.80;;
10529;SDS011;5313;48.834;9.228;2023-02-03T07:29:46;2.83;;;0.93;;
10529;SDS011;5313;48.834;9.228;2023-02-03T07:32:12;1.97;;;1.10;;
10529;SDS011;5313;48.834;9.228;2023-02-03T07:34:37;2.90;;;1.20;;
10529;SDS011;5313;48.834;9.228;2023-02-03T07:37:03;2.03;;;1.10;;
10529;SDS011;5313;48.834;9.228;2023-02-03T07:39:28;2.10;;;0.90;;
10529;SDS011;5313;48.834;9.228;2023-02-03T07:41:54;3.07;;;1.00;;
10529;SDS011;5313;48.834;9.228;2023-02-03T07:44:19;2.53;;;1.23;;
10529;SDS011;5313;48.834;9.228;2023-02-03T07:46:45;3.50;;;1.20;;
10529;SDS011;5313;48.834;9.228;2023-02-03T07:49:10;1.63;;;1.10;;
10529;SDS011;5313;48.834;9.228;2023-02-03T07:51:36;2.23;;;1.07;;
10529;SDS011;5313;48.834;9.228;2023-02-03T07:54:02;3.63;;;1.27;;
10529;SDS011;5313;48.834;9.228;2023-02-03T07:56:28;1.57;;;0.90;;
10529;SDS011;5313;48.834;9.228;2023-02-03T07:58:57;2.40;;;0.80;;
10529;SDS011;5313;48.834;9.228;2023-02-03T08:01:23;3.00;;;1.30;;
10529;SDS011;5313;48.834;9.228;2023-02-03T08:03:49;2.37;;;1.20;;
10529;SDS011;5313;48.834;9.228;2023-02-03T08:06:14;3.87;;;1.47;;
10529;SDS011;5313;48.834;9.228;2023-02-03T08:08:40;7.10;;;3.37;;
10529;SDS011;5313;48.834;9.228;2023-02-03T08:11:06;2.23;;;1.10;;
10529;SDS011;5313;48.834;9.228;2023-02-03T08:13:31;1.53;;;1.23;;
10529;SDS011;5313;48.834;9.228;2023-02-03T08:15:57;2.70;;;1.00;;
10529;SDS011;5313;48.834;9.228;2023-02-03T08:18:23;2.13;;;1.23;;
10529;SDS011;5313;48.834;9.228;2023-02-03T08:20:48;2.37;;;1.20;;
10529;SDS011;5313;48.834;9.228;2023-02-03T08:23:14;2.97;;;1.10;;
10529;SDS011;5313;48.834;9.228;2023-02-03T08:25:39;2.83;;;1.20;;
10529;SDS011;5313;48.834;9.228;2023-02-03T08:28:05;3.13;;;1.30;;
10529;SDS011;5313;48.834;9.228;2023-02-03T08:33:06;2.40;;;1.07;;
10529;SDS011;5313;48.834;9.228;2023-02-03T08:35:31;2.07;;;1.30;;
10529;SDS011;5313;48.834;9.228;2023-02-03T08:37:57;2.43;;;1.30;;
10529;SDS011;5313;48.834;9.228;2023-02-03T08:40:23;2.90;;;1.50;;
10529;SDS011;5313;48.834;9.228;2023-02-03T08:42:48;3.97;;;1.60;;
10529;SDS011;5313;48.834;9.228;2023-02-03T08:45:14;2.67;;;1.40;;
10529;SDS011;5313;48.834;9.228;2023-02-03T08:47:39;2.67;;;1.30;;
10529;SDS011;5313;48.834;9.228;2023-02-03T08:50:05;4.23;;;1.60;;
10529;SDS011;5313;48.834;9.228;2023-02-03T08:52:32;4.77;;;1.63;;
10529;SDS011;5313;48.834;9.228;2023-02-03T08:54:57;4.10;;;1.60;;
10529;SDS011;5313;48.834;9.228;2023-02-03T08:57:23;4.40;;;1.70;;
10529;SDS011;5313;48.834;9.228;2023-02-03T08:59:48;4.60;;;1.90;;
10529;SDS011;5313;48.834;9.228;2023-02-03T09:02:16;7.13;;;1.70;;
10529;SDS011;5313;48.834;9.228;2023-02-03T09:04:43;1.60;;;1.40;;
10529;SDS011;5313;48.834;9.228;2023-02-03T09:07:09;3.73;;;1.40;;
10529;SDS011;5313;48.834;9.228;2023-02-03T09:09:35;3.23;;;1.70;;
10529;SDS011;5313;48.834;9.228;2023-02-03T09:12:01;5.07;;;1.80;;
10529;SDS011;5313;48.834;9.228;2023-02-03T09:14:29;3.83;;;1.50;;
10529;SDS011;5313;48.834;9.228;2023-02-03T09:16:56;2.07;;;1.30;;
10529;SDS011;5313;48.834;9.228;2023-02-03T09:19:23;3.00;;;1.50;;
10529;SDS011;5313;48.834;9.228;2023-02-03T09:21:48;7.13;;;1.70;;
10529;SDS011;5313;48.834;9.228;2023-02-03T09:24:14;2.80;;;1.47;;
10529;SDS011;5313;48.834;9.228;2023-02-03T09:26:41;2.93;;;1.90;;
10529;SDS011;5313;48.834;9.228;2023-02-03T09:29:07;2.90;;;1.60;;
10529;SDS011;5313;48.834;9.228;2023-02-03T09:31:32;5.07;;;2.30;;
10529;SDS011;5313;48.834;9.228;2023-02-03T09:33:58;4.23;;;2.03;;
10529;SDS011;5313;48.834;9.228;2023-02-03T09:36:24;2.33;;;1.40;;
10529;SDS011;5313;48.834;9.228;2023-02-03T09:38:50;2.33;;;1.70;;
10529;SDS011;5313;48.834;9.228;2023-02-03T09:46:50;1.63;;;1.20;;
10529;SDS011;5313;48.834;9.228;2023-02-03T09:49:21;4.13;;;1.40;;
10529;SDS011;5313;48.834;9.228;2023-02-03T09:52:19;1.67;;;1.27;;
10529;SDS011;5313;48.834;9.228;2023-02-03T09:55:12;2.03;;;1.20;;
10529;SDS011;5313;48.834;9.228;2023-02-03T09:57:53;2.27;;;1.20;;
10529;SDS011;5313;48.834;9.228;2023-02-03T10:00:26;3.03;;;1.27;;
10529;SDS011;5313;48.834;9.228;2023-02-03T10:03:35;2.37;;;1.10;;
10529;SDS011;5313;48.834;9.228;2023-02-03T10:06:08;1.60;;;1.40;;
10529;SDS011;5313;48.834;9.228;2023-02-03T10:08:58;2.37;;;1.10;;
10529;SDS011;5313;48.834;9.228;2023-02-03T10:15:06;2.43;;;1.03;;
10529;SDS011;5313;48.834;9.228;2023-02-03T10:17:55;2.97;;;1.40;;
10529;SDS011;5313;48.834;9.228;2023-02-03T10:23:04;7.83;;;4.73;;
10529;SDS011;5313;48.834;9.228;2023-02-03T10:25:35;3.03;;;1.40;;
10529;SDS011;5313;48.834;9.228;2023-02-03T10:28:18;2.40;;;1.00;;
10529;SDS011;5313;48.834;9.228;2023-02-03T10:30:46;3.90;;;0.97;;
10529;SDS011;5313;48.834;9.228;2023-02-03T10:33:15;1.00;;;0.60;;
10529;SDS011;5313;48.834;9.228;2023-02-03T10:35:49;0.40;;;0.40;;
10529;SDS011;5313;48.834;9.228;2023-02-03T10:41:11;1.37;;;0.60;;
10529;SDS011;5313;48.834;9.228;2023-02-03T10:43:37;0.60;;;0.50;;
10529;SDS011;5313;48.834;9.228;2023-02-03T10:46:12;1.83;;;0.70;;
10529;SDS011;5313;48.834;9.228;2023-02-03T10:48:39;1.27;;;0.50;;
10529;SDS011;5313;48.834;9.228;2023-02-03T10:51:07;0.93;;;0.53;;
10529;SDS011;5313;48.834;9.228;2023-02-03T10:53:44;0.70;;;0.57;;
10529;SDS011;5313;48.834;9.228;2023-02-03T10:56:14;0.80;;;0.70;;
10529;SDS011;5313;48.834;9.228;2023-02-03T10:58:47;1.00;;;0.50;;
10529;SDS011;5313;48.834;9.228;2023-02-03T11:01:16;0.93;;;0.50;;
10529;SDS011;5313;48.834;9.228;2023-02-03T11:03:53;2.00;;;0.67;;
10529;SDS011;5313;48.834;9.228;2023-02-03T11:06:24;0.60;;;0.57;;
10529;SDS011;5313;48.834;9.228;2023-02-03T11:08:50;1.40;;;0.70;;
10529;SDS011;5313;48.834;9.228;2023-02-03T11:11:20;1.40;;;0.50;;
10529;SDS011;5313;48.834;9.228;2023-02-03T11:13:51;0.97;;;0.60;;
10529;SDS011;5313;48.834;9.228;2023-02-03T11:16:39;1.43;;;0.53;;
10529;SDS011;5313;48.834;9.228;2023-02-03T11:19:18;0.40;;;0.40;;
10529;SDS011;5313;48.834;9.228;2023-02-03T11:21:46;0.60;;;0.50;;
10529;SDS011;5313;48.834;9.228;2023-02-03T11:26:42;0.67;;;0.40;;
10529;SDS011;5313;48.834;9.228;2023-02-03T11:31:50;0.80;;;0.60;;
10529;SDS011;5313;48.834;9.228;2023-02-03T11:34:24;1.63;;;0.43;;
10529;SDS011;5313;48.834;9.228;2023-02-03T11:36:52;1.17;;;0.40;;
10529;SDS011;5313;48.834;9.228;2023-02-03T11:39:19;0.93;;;0.50;;
10529;SDS011;5313;48.834;9.228;2023-02-03T11:41:48;0.50;;;0.50;;
10529;SDS011;5313;48.834;9.228;2023-02-03T11:44:26;0.53;;;0.40;;
10529;SDS011;5313;48.834;9.228;2023-02-03T11:52:34;0.77;;;0.50;;
10529;SDS011;5313;48.834;9.228;2023-02-03T11:58:15;0.80;;;0.50;;
10529;SDS011;5313;48.834;9.228;2023-02-03T12:04:33;0.73;;;0.60;;
10529;SDS011;5313;48.834;9.228;2023-02-03T12:09:54;1.10;;;0.40;;
10529;SDS011;5313;48.834;9.228;2023-02-03T12:13:09;0.60;;;0.50;;
10529;SDS011;5313;48.834;9.228;2023-02-03T12:16:05;0.90;;;0.50;;
10529;SDS011;5313;48.834;9.228;2023-02-03T12:19:13;1.13;;;0.40;;
10529;SDS011;5313;48.834;9.228;2023-02-03T12:22:11;1.27;;;0.60;;
10529;SDS011;5313;48.834;9.228;2023-02-03T12:24:51;0.70;;;0.60;;
10529;SDS011;5313;48.834;9.228;2023-02-03T12:27:40;0.67;;;0.50;;
10529;SDS011;5313;48.834;9.228;2023-02-03T12:30:31;0.53;;;0.50;;
10529;SDS011;5313;48.834;9.228;2023-02-03T12:33:20;0.60;;;0.40;;
10529;SDS011;5313;48.834;9.228;2023-02-03T12:36:04;0.50;;;0.40;;
10529;SDS011;5313;48.834;9.228;2023-02-03T12:38:36;0.60;;;0.50;;
10529;SDS011;5313;48.834;9.228;2023-02-03T12:41:12;0.93;;;0.60;;
10529;SDS011;5313;48.834;9.228;2023-02-03T12:43:43;0.50;;;0.40;;
10529;SDS011;5313;48.834;9.228;2023-02-03T12:46:28;0.30;;;0.30;;
10529;SDS011;5313;48.834;9.228;2023-02-03T12:49:03;0.80;;;0.53;;
10529;SDS011;5313;48.834;9.228;2023-02-03T12:57:24;0.60;;;0.50;;
10529;SDS011;5313;48.834;9.228;2023-02-03T13:02:41;2.70;;;0.60;;
10529;SDS011;5313;48.834;9.228;2023-02-03T13:05:25;1.03;;;0.53;;
10529;SDS011;5313;48.834;9.228;2023-02-03T13:08:10;2.40;;;0.60;;
10529;SDS011;5313;48.834;9.228;2023-02-03T13:11:02;0.93;;;0.50;;
10529;SDS011;5313;48.834;9.228;2023-02-03T13:13:48;1.40;;;0.70;;
10529;SDS011;5313;48.834;9.228;2023-02-03T13:16:22;0.57;;;0.50;;
10529;SDS011;5313;48.834;9.228;2023-02-03T13:18:55;2.37;;;0.63;;
10529;SDS011;5313;48.834;9.228;2023-02-03T13:21:26;0.60;;;0.40;;
10529;SDS011;5313;48.834;9.228;2023-02-03T13:23:52;1.13;;;0.63;;
10529;SDS011;5313;48.834;9.228;2023-02-03T13:26:31;1.70;;;0.70;;
10529;SDS011;5313;48.834;9.228;2023-02-03T13:35:27;1.53;;;0.60;;
10529;SDS011;5313;48.834;9.228;2023-02-03T13:41:02;1.80;;;0.60;;
10529;SDS011;5313;48.834;9.228;2023-02-03T13:43:40;0.77;;;0.50;;
10529;SDS011;5313;48.834;9.228;2023-02-03T13:46:18;0.40;;;0.40;;
10529;SDS011;5313;48.834;9.228;2023-02-03T13:48:50;0.80;;;0.70;;
10529;SDS011;5313;48.834;9.228;2023-02-03T13:51:18;0.70;;;0.60;;
10529;SDS011;5313;48.834;9.228;2023-02-03T13:53:47;1.07;;;0.60;;
10529;SDS011;5313;48.834;9.228;2023-02-03T13:56:21;1.03;;;0.40;;
10529;SDS011;5313;48.834;9.228;2023-02-03T13:58:59;0.87;;;0.50;;
10529;SDS011;5313;48.834;9.228;2023-02-03T14:01:26;0.63;;;0.50;;
10529;SDS011;5313;48.834;9.228;2023-02-03T14:03:52;0.43;;;0.43;;
10529;SDS011;5313;48.834;9.228;2023-02-03T14:09:16;0.93;;;0.40;;
10529;SDS011;5313;48.834;9.228;2023-02-03T14:11:43;0.67;;;0.57;;
10529;SDS011;5313;48.834;9.228;2023-02-03T14:16:39;0.97;;;0.60;;
10529;SDS011;5313;48.834;9.228;2023-02-03T14:21:53;0.40;;;0.40;;
10529;SDS011;5313;48.834;9.228;2023-02-03T14:24:22;0.50;;;0.40;;
10529;SDS011;5313;48.834;9.228;2023-02-03T14:26:56;0.57;;;0.40;;
10529;SDS011;5313;48.834;9.228;2023-02-03T14:29:25;1.13;;;0.50;;
10529;SDS011;5313;48.834;9.228;2023-02-03T14:32:08;0.30;;;0.30;;
10529;SDS011;5313;48.834;9.228;2023-02-03T14:34:42;0.40;;;0.40;;
10529;SDS011;5313;48.834;9.228;2023-02-03T14:40:11;0.60;;;0.50;;
10529;SDS011;5313;48.834;9.228;2023-02-03T14:50:58;0.93;;;0.50;;
10529;SDS011;5313;48.834;9.228;2023-02-03T14:58:42;0.40;;;0.40;;
10529;SDS011;5313;48.834;9.228;2023-02-03T15:06:47;0.77;;;0.40;;
10529;SDS011;5313;48.834;9.228;2023-02-03T15:12:16;2.63;;;0.70;;
10529;SDS011;5313;48.834;9.228;2023-02-03T15:14:43;0.50;;;0.40;;
10529;SDS011;5313;48.834;9.228;2023-02-03T15:17:17;0.50;;;0.30;;
10529;SDS011;5313;48.834;9.228;2023-02-03T15:19:49;0.43;;;0.40;;
10529;SDS011;5313;48.834;9.228;2023-02-03T15:22:22;2.00;;;0.50;;
10529;SDS011;5313;48.834;9.228;2023-02-03T15:24:51;0.50;;;0.43;;
10529;SDS011;5313;48.834;9.228;2023-02-03T15:27:23;0.60;;;0.50;;
10529;SDS011;5313;48.834;9.228;2023-02-03T15:29:54;0.67;;;0.50;;
10529;SDS011;5313;48.834;9.228;2023-02-03T15:32:24;0.40;;;0.40;;
10529;SDS011;5313;48.834;9.228;2023-02-03T15:34:53;1.80;;;0.50;;
10529;SDS011;5313;48.834;9.228;2023-02-03T15:40:15;0.60;;;0.50;;
10529;SDS011;5313;48.834;9.228;2023-02-03T15:42:51;0.53;;;0.50;;
10529;SDS011;5313;48.834;9.228;2023-02-03T15:48:11;0.63;;;0.53;;
10529;SDS011;5313;48.834;9.228;2023-02-03T15:50:52;0.80;;;0.50;;
10529;SDS011;5313;48.834;9.228;2023-02-03T15:53:29;0.30;;;0.30;;
10529;SDS011;5313;48.834;9.228;2023-02-03T15:56:10;0.70;;;0.60;;
10529;SDS011;5313;48.834;9.228;2023-02-03T15:58:45;0.40;;;0.40;;
10529;SDS011;5313;48.834;9.228;2023-02-03T16:01:13;0.87;;;0.70;;
10529;SDS011;5313;48.834;9.228;2023-02-03T16:03:44;0.70;;;0.60;;
10529;SDS011;5313;48.834;9.228;2023-02-03T16:06:25;0.80;;;0.60;;
10529;SDS011;5313;48.834;9.228;2023-02-03T16:08:54;0.50;;;0.50;;
10529;SDS011;5313;48.834;9.228;2023-02-03T16:13:51;0.70;;;0.63;;
10529;SDS011;5313;48.834;9.228;2023-02-03T16:16:23;0.80;;;0.60;;
10529;SDS011;5313;48.834;9.228;2023-02-03T16:19:01;0.70;;;0.70;;
10529;SDS011;5313;48.834;9.228;2023-02-03T16:23:57;0.70;;;0.63;;
10529;SDS011;5313;48.834;9.228;2023-02-03T16:26:24;1.80;;;0.87;;
10529;SDS011;5313;48.834;9.228;2023-02-03T16:28:54;0.97;;;0.70;;
10529;SDS011;5313;48.834;9.228;2023-02-03T16:31:53;0.80;;;0.60;;
10529;SDS011;5313;48.834;9.228;2023-02-03T16:34:38;0.70;;;0.57;;
10529;SDS011;5313;48.834;9.228;2023-02-03T16:37:23;1.10;;;0.80;;
10529;SDS011;5313;48.834;9.228;2023-02-03T16:40:10;0.60;;;0.60;;
10529;SDS011;5313;48.834;9.228;2023-02-03T16:42:56;1.63;;;1.17;;
10529;SDS011;5313;48.834;9.228;2023-02-03T16:45:40;1.23;;;0.60;;
10529;SDS011;5313;48.834;9.228;2023-02-03T16:48:24;0.97;;;0.80;;
10529;SDS011;5313;48.834;9.228;2023-02-03T16:51:12;1.03;;;0.77;;
10529;SDS011;5313;48.834;9.228;2023-02-03T16:53:40;0.63;;;0.60;;
10529;SDS011;5313;48.834;9.228;2023-02-03T16:56:08;0.83;;;0.63;;
10529;SDS011;5313;48.834;9.228;2023-02-03T16:58:34;0.80;;;0.60;;
10529;SDS011;5313;48.834;9.228;2023-02-03T17:01:00;1.00;;;0.80;;
10529;SDS011;5313;48.834;9.228;2023-02-03T17:03:27;2.27;;;0.80;;
10529;SDS011;5313;48.834;9.228;2023-02-03T17:05:54;0.80;;;0.70;;
10529;SDS011;5313;48.834;9.228;2023-02-03T17:08:22;2.20;;;0.60;;
10529;SDS011;5313;48.834;9.228;2023-02-03T17:10:49;0.50;;;0.50;;
10529;SDS011;5313;48.834;9.228;2023-02-03T17:13:15;1.37;;;0.67;;
10529;SDS011;5313;48.834;9.228;2023-02-03T17:15:51;0.77;;;0.70;;
10529;SDS011;5313;48.834;9.228;2023-02-03T17:18:16;0.70;;;0.63;;
10529;SDS011;5313;48.834;9.228;2023-02-03T17:20:43;0.60;;;0.60;;
10529;SDS011;5313;48.834;9.228;2023-02-03T17:23:09;0.77;;;0.50;;